sensor_id;sensor_type;location;lat;lon;timestamp;pressure;altitude;pressure_sealevel;temperature
70969;BMP280;58630;43.022;25.100;2023-02-23T00:01:35;99313.78;;;16.30
70969;BMP280;58630;43.022;25.100;2023-02-23T00:04:00;99312.53;;;16.27
70969;BMP280;58630;43.022;25.100;2023-02-23T00:06:26;99312.03;;;16.25
70969;BMP280;58630;43.022;25.100;2023-02-23T00:08:52;99314.66;;;16.25
70969;BMP280;58630;43.022;25.100;2023-02-23T00:11:18;99314.19;;;16.23
70969;BMP280;58630;43.022;25.100;2023-02-23T00:13:45;99318.19;;;16.21
70969;BMP280;58630;43.022;25.100;2023-02-23T00:16:14;99326.34;;;16.20
70969;BMP280;58630;43.022;25.100;2023-02-23T00:18:44;99322.94;;;16.19
70969;BMP280;58630;43.022;25.100;2023-02-23T00:21:18;99324.91;;;16.14
70969;BMP280;58630;43.022;25.100;2023-02-23T00:23:48;99324.44;;;16.12
70969;BMP280;58630;43.022;25.100;2023-02-23T00:26:13;99324.22;;;16.08
70969;BMP280;58630;43.022;25.100;2023-02-23T00:28:39;99322.22;;;16.05
70969;BMP280;58630;43.022;25.100;2023-02-23T00:31:06;99331.91;;;16.05
70969;BMP280;58630;43.022;25.100;2023-02-23T00:33:31;99325.13;;;16.04
70969;BMP280;58630;43.022;25.100;2023-02-23T00:36:11;99320.22;;;16.02
70969;BMP280;58630;43.022;25.100;2023-02-23T00:38:37;99321.28;;;16.01
70969;BMP280;58630;43.022;25.100;2023-02-23T00:41:07;99325.56;;;15.97
70969;BMP280;58630;43.022;25.100;2023-02-23T00:43:34;99317.47;;;15.94
70969;BMP280;58630;43.022;25.100;2023-02-23T00:45:59;99322.25;;;15.92
70969;BMP280;58630;43.022;25.100;2023-02-23T00:48:29;99313.41;;;15.88
70969;BMP280;58630;43.022;25.100;2023-02-23T00:51:01;99314.19;;;15.88
70969;BMP280;58630;43.022;25.100;2023-02-23T00:53:27;99314.03;;;15.85
70969;BMP280;58630;43.022;25.100;2023-02-23T00:55:53;99317.41;;;15.85
70969;BMP280;58630;43.022;25.100;2023-02-23T00:58:18;99311.09;;;15.86
70969;BMP280;58630;43.022;25.100;2023-02-23T01:00:43;99313.06;;;15.81
70969;BMP280;58630;43.022;25.100;2023-02-23T01:03:09;99312.72;;;15.82
70969;BMP280;58630;43.022;25.100;2023-02-23T01:05:34;99304.69;;;15.79
70969;BMP280;58630;43.022;25.100;2023-02-23T01:07:59;99307.59;;;15.77
70969;BMP280;58630;43.022;25.100;2023-02-23T01:10:24;99307.41;;;15.74
70969;BMP280;58630;43.022;25.100;2023-02-23T01:12:50;99307.72;;;15.72
70969;BMP280;58630;43.022;25.100;2023-02-23T01:15:16;99312.16;;;15.72
70969;BMP280;58630;43.022;25.100;2023-02-23T01:17:41;99312.75;;;15.69
70969;BMP280;58630;43.022;25.100;2023-02-23T01:20:08;99309.38;;;15.68
70969;BMP280;58630;43.022;25.100;2023-02-23T01:22:43;99305.19;;;15.67
70969;BMP280;58630;43.022;25.100;2023-02-23T01:25:09;99307.63;;;15.64
70969;BMP280;58630;43.022;25.100;2023-02-23T01:27:36;99305.91;;;15.60
70969;BMP280;58630;43.022;25.100;2023-02-23T01:30:02;99301.72;;;15.59
70969;BMP280;58630;43.022;25.100;2023-02-23T01:32:27;99312.50;;;15.57
70969;BMP280;58630;43.022;25.100;2023-02-23T01:34:52;99317.53;;;15.54
70969;BMP280;58630;43.022;25.100;2023-02-23T01:37:18;99319.94;;;15.50
70969;BMP280;58630;43.022;25.100;2023-02-23T01:39:43;99312.84;;;15.51
70969;BMP280;58630;43.022;25.100;2023-02-23T01:42:11;99311.31;;;15.50
70969;BMP280;58630;43.022;25.100;2023-02-23T01:47:03;99310.66;;;15.44
70969;BMP280;58630;43.022;25.100;2023-02-23T01:49:29;99306.78;;;15.42
70969;BMP280;58630;43.022;25.100;2023-02-23T01:52:02;99311.81;;;15.38
70969;BMP280;58630;43.022;25.100;2023-02-23T01:54:29;99308.09;;;15.39
70969;BMP280;58630;43.022;25.100;2023-02-23T01:56:57;99309.66;;;15.40
70969;BMP280;58630;43.022;25.100;2023-02-23T01:59:28;99313.44;;;15.34
70969;BMP280;58630;43.022;25.100;2023-02-23T02:01:54;99315.88;;;15.31
70969;BMP280;58630;43.022;25.100;2023-02-23T02:04:20;99315.06;;;15.30
70969;BMP280;58630;43.022;25.100;2023-02-23T02:06:46;99312.75;;;15.29
70969;BMP280;58630;43.022;25.100;2023-02-23T02:09:14;99315.66;;;15.27
70969;BMP280;58630;43.022;25.100;2023-02-23T02:11:43;99312.56;;;15.25
70969;BMP280;58630;43.022;25.100;2023-02-23T02:19:38;99317.09;;;15.20
70969;BMP280;58630;43.022;25.100;2023-02-23T02:53:50;99311.25;;;14.96
70969;BMP280;58630;43.022;25.100;2023-02-23T02:56:20;99316.81;;;14.95
70969;BMP280;58630;43.022;25.100;2023-02-23T02:58:46;99304.00;;;14.93
70969;BMP280;58630;43.022;25.100;2023-02-23T03:01:15;99320.47;;;14.94
70969;BMP280;58630;43.022;25.100;2023-02-23T03:04:00;99319.50;;;14.90
70969;BMP280;58630;43.022;25.100;2023-02-23T03:06:51;99316.19;;;14.84
70969;BMP280;58630;43.022;25.100;2023-02-23T03:18:21;99328.56;;;14.79
70969;BMP280;58630;43.022;25.100;2023-02-23T03:21:12;99328.34;;;14.75
70969;BMP280;58630;43.022;25.100;2023-02-23T03:24:08;99338.34;;;14.73
70969;BMP280;58630;43.022;25.100;2023-02-23T03:30:21;99333.66;;;14.70
70969;BMP280;58630;43.022;25.100;2023-02-23T03:33:14;99338.69;;;14.67
70969;BMP280;58630;43.022;25.100;2023-02-23T03:36:01;99340.78;;;14.65
70969;BMP280;58630;43.022;25.100;2023-02-23T03:38:52;99344.47;;;14.64
70969;BMP280;58630;43.022;25.100;2023-02-23T03:41:39;99348.63;;;14.65
70969;BMP280;58630;43.022;25.100;2023-02-23T03:44:28;99338.00;;;14.61
70969;BMP280;58630;43.022;25.100;2023-02-23T03:47:13;99344.34;;;14.55
70969;BMP280;58630;43.022;25.100;2023-02-23T03:49:58;99345.16;;;14.56
70969;BMP280;58630;43.022;25.100;2023-02-23T03:52:46;99343.59;;;14.55
70969;BMP280;58630;43.022;25.100;2023-02-23T03:55:32;99345.41;;;14.54
70969;BMP280;58630;43.022;25.100;2023-02-23T03:58:17;99351.97;;;14.52
70969;BMP280;58630;43.022;25.100;2023-02-23T04:01:04;99351.75;;;14.48
70969;BMP280;58630;43.022;25.100;2023-02-23T04:03:50;99347.59;;;14.47
70969;BMP280;58630;43.022;25.100;2023-02-23T04:06:37;99348.97;;;14.45
70969;BMP280;58630;43.022;25.100;2023-02-23T04:09:22;99354.94;;;14.45
70969;BMP280;58630;43.022;25.100;2023-02-23T04:12:08;99356.09;;;14.40
70969;BMP280;58630;43.022;25.100;2023-02-23T04:15:07;99353.00;;;14.38
70969;BMP280;58630;43.022;25.100;2023-02-23T04:17:34;99346.72;;;14.39
70969;BMP280;58630;43.022;25.100;2023-02-23T04:20:00;99349.56;;;14.37
70969;BMP280;58630;43.022;25.100;2023-02-23T04:22:25;99359.53;;;14.35
70969;BMP280;58630;43.022;25.100;2023-02-23T04:24:50;99347.50;;;14.34
70969;BMP280;58630;43.022;25.100;2023-02-23T04:27:16;99358.28;;;14.33
70969;BMP280;58630;43.022;25.100;2023-02-23T04:29:41;99358.06;;;14.29
70969;BMP280;58630;43.022;25.100;2023-02-23T04:32:15;99364.91;;;14.25
70969;BMP280;58630;43.022;25.100;2023-02-23T04:34:41;99364.91;;;14.25
70969;BMP280;58630;43.022;25.100;2023-02-23T04:37:06;99363.06;;;14.26
70969;BMP280;58630;43.022;25.100;2023-02-23T04:39:32;99362.84;;;14.22
70969;BMP280;58630;43.022;25.100;2023-02-23T04:41:57;99362.38;;;14.20
70969;BMP280;58630;43.022;25.100;2023-02-23T04:44:22;99365.25;;;14.19
70969;BMP280;58630;43.022;25.100;2023-02-23T04:46:47;99363.47;;;14.14
70969;BMP280;58630;43.022;25.100;2023-02-23T04:49:13;99371.81;;;14.16
70969;BMP280;58630;43.022;25.100;2023-02-23T04:51:38;99368.72;;;14.14
70969;BMP280;58630;43.022;25.100;2023-02-23T04:54:03;99371.31;;;14.14
70969;BMP280;58630;43.022;25.100;2023-02-23T04:56:29;99371.38;;;14.09
70969;BMP280;58630;43.022;25.100;2023-02-23T04:58:55;99372.19;;;14.10
70969;BMP280;58630;43.022;25.100;2023-02-23T05:01:20;99375.06;;;14.08
70969;BMP280;58630;43.022;25.100;2023-02-23T05:03:46;99370.13;;;14.07
70969;BMP280;58630;43.022;25.100;2023-02-23T05:06:12;99375.59;;;14.05
70969;BMP280;58630;43.022;25.100;2023-02-23T05:08:39;99376.97;;;14.03
70969;BMP280;58630;43.022;25.100;2023-02-23T05:11:05;99376.16;;;14.02
70969;BMP280;58630;43.022;25.100;2023-02-23T05:13:30;99384.56;;;13.99
70969;BMP280;58630;43.022;25.100;2023-02-23T05:15:56;99384.09;;;13.97
70969;BMP280;58630;43.022;25.100;2023-02-23T05:18:21;99382.53;;;13.96
70969;BMP280;58630;43.022;25.100;2023-02-23T05:20:47;99392.47;;;13.94
70969;BMP280;58630;43.022;25.100;2023-02-23T05:23:12;99390.09;;;13.93
70969;BMP280;58630;43.022;25.100;2023-02-23T05:25:38;99395.66;;;13.91
70969;BMP280;58630;43.022;25.100;2023-02-23T05:28:03;99397.75;;;13.89
70969;BMP280;58630;43.022;25.100;2023-02-23T05:30:29;99407.69;;;13.87
70969;BMP280;58630;43.022;25.100;2023-02-23T05:32:54;99406.16;;;13.86
70969;BMP280;58630;43.022;25.100;2023-02-23T05:35:20;99410.84;;;13.84
70969;BMP280;58630;43.022;25.100;2023-02-23T05:37:45;99419.75;;;13.83
70969;BMP280;58630;43.022;25.100;2023-02-23T05:40:10;99420.50;;;13.84
70969;BMP280;58630;43.022;25.100;2023-02-23T05:42:36;99417.69;;;13.80
70969;BMP280;58630;43.022;25.100;2023-02-23T05:45:02;99422.41;;;13.78
70969;BMP280;58630;43.022;25.100;2023-02-23T05:47:29;99431.56;;;13.76
70969;BMP280;58630;43.022;25.100;2023-02-23T05:49:55;99434.19;;;13.76
70969;BMP280;58630;43.022;25.100;2023-02-23T05:52:21;99441.75;;;13.77
70969;BMP280;58630;43.022;25.100;2023-02-23T05:54:46;99442.31;;;13.75
70969;BMP280;58630;43.022;25.100;2023-02-23T05:57:12;99443.84;;;13.75
70969;BMP280;58630;43.022;25.100;2023-02-23T05:59:37;99451.97;;;13.74
70969;BMP280;58630;43.022;25.100;2023-02-23T06:02:04;99454.59;;;13.69
70969;BMP280;58630;43.022;25.100;2023-02-23T06:04:30;99455.38;;;13.70
70969;BMP280;58630;43.022;25.100;2023-02-23T06:06:55;99460.91;;;13.68
70969;BMP280;58630;43.022;25.100;2023-02-23T06:09:20;99459.81;;;13.69
70969;BMP280;58630;43.022;25.100;2023-02-23T06:11:46;99461.94;;;13.67
70969;BMP280;58630;43.022;25.100;2023-02-23T06:14:11;99464.56;;;13.67
70969;BMP280;58630;43.022;25.100;2023-02-23T06:16:37;99466.41;;;13.67
70969;BMP280;58630;43.022;25.100;2023-02-23T06:19:03;99477.38;;;13.64
70969;BMP280;58630;43.022;25.100;2023-02-23T06:21:28;99475.34;;;13.61
70969;BMP280;58630;43.022;25.100;2023-02-23T06:23:53;99476.59;;;13.63
70969;BMP280;58630;43.022;25.100;2023-02-23T06:26:19;99482.59;;;13.64
70969;BMP280;58630;43.022;25.100;2023-02-23T06:28:44;99478.72;;;13.61
70969;BMP280;58630;43.022;25.100;2023-02-23T06:31:09;99482.66;;;13.59
70969;BMP280;58630;43.022;25.100;2023-02-23T06:33:35;99486.81;;;13.60
70969;BMP280;58630;43.022;25.100;2023-02-23T06:36:01;99493.34;;;13.62
70969;BMP280;58630;43.022;25.100;2023-02-23T06:38:26;99489.44;;;13.60
70969;BMP280;58630;43.022;25.100;2023-02-23T06:40:52;99495.94;;;13.57
70969;BMP280;58630;43.022;25.100;2023-02-23T06:43:17;99494.66;;;13.60
70969;BMP280;58630;43.022;25.100;2023-02-23T06:45:42;99495.19;;;13.57
70969;BMP280;58630;43.022;25.100;2023-02-23T06:48:07;99491.03;;;13.56
70969;BMP280;58630;43.022;25.100;2023-02-23T06:50:33;99496.25;;;13.56
70969;BMP280;58630;43.022;25.100;2023-02-23T06:52:58;99490.53;;;13.54
70969;BMP280;58630;43.022;25.100;2023-02-23T06:55:23;99490.53;;;13.54
70969;BMP280;58630;43.022;25.100;2023-02-23T06:57:49;99494.19;;;13.53
70969;BMP280;58630;43.022;25.100;2023-02-23T07:00:15;99486.34;;;13.53
70969;BMP280;58630;43.022;25.100;2023-02-23T07:02:41;99489.25;;;13.51
70969;BMP280;58630;43.022;25.100;2023-02-23T07:05:06;99489.25;;;13.51
70969;BMP280;58630;43.022;25.100;2023-02-23T07:07:32;99490.00;;;13.52
70969;BMP280;58630;43.022;25.100;2023-02-23T07:09:57;99484.78;;;13.52
70969;BMP280;58630;43.022;25.100;2023-02-23T07:12:22;99485.84;;;13.51
70969;BMP280;58630;43.022;25.100;2023-02-23T07:14:48;99481.69;;;13.50
70969;BMP280;58630;43.022;25.100;2023-02-23T07:17:13;99485.34;;;13.49
70969;BMP280;58630;43.022;25.100;2023-02-23T07:19:38;99490.56;;;13.49
70969;BMP280;58630;43.022;25.100;2023-02-23T07:22:03;99491.63;;;13.48
70969;BMP280;58630;43.022;25.100;2023-02-23T07:24:29;99490.56;;;13.49
70969;BMP280;58630;43.022;25.100;2023-02-23T07:26:55;99489.53;;;13.50
70969;BMP280;58630;43.022;25.100;2023-02-23T07:29:20;99479.06;;;13.50
70969;BMP280;58630;43.022;25.100;2023-02-23T07:31:48;99485.09;;;13.50
70969;BMP280;58630;43.022;25.100;2023-02-23T07:34:14;99491.84;;;13.51
70969;BMP280;58630;43.022;25.100;2023-02-23T07:36:39;99486.63;;;13.51
70969;BMP280;58630;43.022;25.100;2023-02-23T07:39:04;99479.56;;;13.52
70969;BMP280;58630;43.022;25.100;2023-02-23T07:41:30;99491.06;;;13.51
70969;BMP280;58630;43.022;25.100;2023-02-23T07:43:56;99484.50;;;13.53
70969;BMP280;58630;43.022;25.100;2023-02-23T07:46:22;99494.94;;;13.53
70969;BMP280;58630;43.022;25.100;2023-02-23T07:48:47;99487.41;;;13.52
70969;BMP280;58630;43.022;25.100;2023-02-23T07:51:13;99487.91;;;13.54
70969;BMP280;58630;43.022;25.100;2023-02-23T07:53:39;99488.97;;;13.53
70969;BMP280;58630;43.022;25.100;2023-02-23T07:56:05;99484.25;;;13.55
70969;BMP280;58630;43.022;25.100;2023-02-23T07:58:30;99483.47;;;13.54
70969;BMP280;58630;43.022;25.100;2023-02-23T08:00:56;99479.03;;;13.55
70969;BMP280;58630;43.022;25.100;2023-02-23T08:03:21;99479.81;;;13.55
70969;BMP280;58630;43.022;25.100;2023-02-23T08:05:46;99482.13;;;13.57
70969;BMP280;58630;43.022;25.100;2023-02-23T08:08:12;99482.13;;;13.57
70969;BMP280;58630;43.022;25.100;2023-02-23T08:10:37;99484.47;;;13.58
70969;BMP280;58630;43.022;25.100;2023-02-23T08:13:03;99481.59;;;13.60
70969;BMP280;58630;43.022;25.100;2023-02-23T08:15:28;99480.56;;;13.61
70969;BMP280;58630;43.022;25.100;2023-02-23T08:17:53;99480.28;;;13.62
70969;BMP280;58630;43.022;25.100;2023-02-23T08:20:19;99476.91;;;13.62
70969;BMP280;58630;43.022;25.100;2023-02-23T08:22:44;99475.06;;;13.62
70969;BMP280;58630;43.022;25.100;2023-02-23T08:25:09;99478.16;;;13.64
70969;BMP280;58630;43.022;25.100;2023-02-23T08:27:35;99478.94;;;13.65
70969;BMP280;58630;43.022;25.100;2023-02-23T08:30:01;99478.94;;;13.65
70969;BMP280;58630;43.022;25.100;2023-02-23T08:32:28;99481.28;;;13.66
70969;BMP280;58630;43.022;25.100;2023-02-23T08:34:54;99475.81;;;13.68
70969;BMP280;58630;43.022;25.100;2023-02-23T08:37:21;99473.66;;;13.70
70969;BMP280;58630;43.022;25.100;2023-02-23T08:39:47;99478.88;;;13.70
70969;BMP280;58630;43.022;25.100;2023-02-23T08:42:12;99484.63;;;13.72
70969;BMP280;58630;43.022;25.100;2023-02-23T08:44:38;99477.56;;;13.72
70969;BMP280;58630;43.022;25.100;2023-02-23T08:47:03;99470.50;;;13.73
70969;BMP280;58630;43.022;25.100;2023-02-23T08:49:29;99473.63;;;13.75
70969;BMP280;58630;43.022;25.100;2023-02-23T08:51:56;99465.53;;;13.76
70969;BMP280;58630;43.022;25.100;2023-02-23T08:54:21;99471.50;;;13.76
70969;BMP280;58630;43.022;25.100;2023-02-23T08:56:46;99467.59;;;13.79
70969;BMP280;58630;43.022;25.100;2023-02-23T08:59:12;99467.31;;;13.80
70969;BMP280;58630;43.022;25.100;2023-02-23T09:01:37;99454.75;;;13.82
70969;BMP280;58630;43.022;25.100;2023-02-23T09:04:03;99459.97;;;13.82
70969;BMP280;58630;43.022;25.100;2023-02-23T09:06:29;99459.69;;;13.84
70969;BMP280;58630;43.022;25.100;2023-02-23T09:08:54;99454.22;;;13.85
70969;BMP280;58630;43.022;25.100;2023-02-23T09:11:20;99455.78;;;13.86
70969;BMP280;58630;43.022;25.100;2023-02-23T09:13:46;99456.50;;;13.87
70969;BMP280;58630;43.022;25.100;2023-02-23T09:16:11;99446.84;;;13.87
70969;BMP280;58630;43.022;25.100;2023-02-23T09:18:37;99443.19;;;13.88
70969;BMP280;58630;43.022;25.100;2023-02-23T09:21:03;99445.53;;;13.90
70969;BMP280;58630;43.022;25.100;2023-02-23T09:23:33;99453.88;;;13.92
70969;BMP280;58630;43.022;25.100;2023-02-23T09:26:02;99450.19;;;13.93
70969;BMP280;58630;43.022;25.100;2023-02-23T09:28:27;99445.75;;;13.93
70969;BMP280;58630;43.022;25.100;2023-02-23T09:30:54;99448.09;;;13.95
70969;BMP280;58630;43.022;25.100;2023-02-23T09:33:20;99443.66;;;13.95
70969;BMP280;58630;43.022;25.100;2023-02-23T09:35:46;99446.78;;;13.97
70969;BMP280;58630;43.022;25.100;2023-02-23T09:38:11;99449.09;;;13.99
70969;BMP280;58630;43.022;25.100;2023-02-23T09:40:57;99450.66;;;14.00
70969;BMP280;58630;43.022;25.100;2023-02-23T09:50:42;99442.00;;;14.04
70969;BMP280;58630;43.022;25.100;2023-02-23T09:55:48;99436.19;;;14.07
70969;BMP280;58630;43.022;25.100;2023-02-23T09:58:21;99436.72;;;14.09
70969;BMP280;58630;43.022;25.100;2023-02-23T10:00:49;99429.91;;;14.08
70969;BMP280;58630;43.022;25.100;2023-02-23T10:03:29;99416.28;;;14.11
70969;BMP280;58630;43.022;25.100;2023-02-23T10:05:57;99420.47;;;14.12
70969;BMP280;58630;43.022;25.100;2023-02-23T10:18:36;99411.75;;;14.17
70969;BMP280;58630;43.022;25.100;2023-02-23T10:23:41;99402.88;;;14.18
70969;BMP280;58630;43.022;25.100;2023-02-23T10:26:11;99402.63;;;14.19
70969;BMP280;58630;43.022;25.100;2023-02-23T10:28:39;99391.88;;;14.21
70969;BMP280;58630;43.022;25.100;2023-02-23T10:31:12;99392.34;;;14.23
70969;BMP280;58630;43.022;25.100;2023-02-23T10:33:43;99392.09;;;14.24
70969;BMP280;58630;43.022;25.100;2023-02-23T10:36:16;99396.28;;;14.25
70969;BMP280;58630;43.022;25.100;2023-02-23T10:38:43;99390.00;;;14.26
70969;BMP280;58630;43.022;25.100;2023-02-23T10:41:08;99386.34;;;14.27
70969;BMP280;58630;43.022;25.100;2023-02-23T10:43:35;99380.78;;;14.29
70969;BMP280;58630;43.022;25.100;2023-02-23T10:46:00;99376.34;;;14.29
70969;BMP280;58630;43.022;25.100;2023-02-23T10:48:26;99388.38;;;14.30
70969;BMP280;58630;43.022;25.100;2023-02-23T10:50:53;99379.47;;;14.31
70969;BMP280;58630;43.022;25.100;2023-02-23T10:53:23;99374.72;;;14.33
70969;BMP280;58630;43.022;25.100;2023-02-23T10:56:07;99371.03;;;14.34
70969;BMP280;58630;43.022;25.100;2023-02-23T11:03:57;99372.06;;;14.38
70969;BMP280;58630;43.022;25.100;2023-02-23T11:06:37;99372.53;;;14.40
70969;BMP280;58630;43.022;25.100;2023-02-23T11:12:03;99369.59;;;14.46
70969;BMP280;58630;43.022;25.100;2023-02-23T11:14:31;99367.19;;;14.50
70969;BMP280;58630;43.022;25.100;2023-02-23T11:16:57;99367.88;;;14.55
70969;BMP280;58630;43.022;25.100;2023-02-23T11:19:23;99370.72;;;14.59
70969;BMP280;58630;43.022;25.100;2023-02-23T11:21:50;99365.13;;;14.65
70969;BMP280;58630;43.022;25.100;2023-02-23T11:24:26;99371.84;;;14.71
70969;BMP280;58630;43.022;25.100;2023-02-23T11:26:54;99367.50;;;14.80
70969;BMP280;58630;43.022;25.100;2023-02-23T11:31:50;99368.13;;;14.91
70969;BMP280;58630;43.022;25.100;2023-02-23T11:34:21;99366.97;;;14.97
70969;BMP280;58630;43.022;25.100;2023-02-23T11:36:56;99370.28;;;15.02
70969;BMP280;58630;43.022;25.100;2023-02-23T11:39:22;99368.09;;;15.09
70969;BMP280;58630;43.022;25.100;2023-02-23T11:44:31;99364.13;;;15.25
70969;BMP280;58630;43.022;25.100;2023-02-23T11:46:56;99363.16;;;15.34
70969;BMP280;58630;43.022;25.100;2023-02-23T11:49:25;99367.75;;;15.42
70969;BMP280;58630;43.022;25.100;2023-02-23T11:51:52;99361.28;;;15.53
70969;BMP280;58630;43.022;25.100;2023-02-23T11:54:24;99365.34;;;15.59
70969;BMP280;58630;43.022;25.100;2023-02-23T11:56:50;99372.53;;;15.80
70969;BMP280;58630;43.022;25.100;2023-02-23T11:59:19;99364.16;;;15.92
70969;BMP280;58630;43.022;25.100;2023-02-23T12:01:46;99372.50;;;16.07
70969;BMP280;58630;43.022;25.100;2023-02-23T12:04:22;99372.25;;;16.30
70969;BMP280;58630;43.022;25.100;2023-02-23T12:06:48;99362.06;;;16.51
70969;BMP280;58630;43.022;25.100;2023-02-23T12:09:24;99370.72;;;16.73
70969;BMP280;58630;43.022;25.100;2023-02-23T12:11:57;99370.09;;;16.98
70969;BMP280;58630;43.022;25.100;2023-02-23T12:14:26;99364.53;;;17.21
70969;BMP280;58630;43.022;25.100;2023-02-23T12:17:16;99371.13;;;17.41
70969;BMP280;58630;43.022;25.100;2023-02-23T12:19:50;99355.88;;;17.59
70969;BMP280;58630;43.022;25.100;2023-02-23T12:22:19;99365.34;;;17.77
70969;BMP280;58630;43.022;25.100;2023-02-23T12:24:48;99371.25;;;17.91
70969;BMP280;58630;43.022;25.100;2023-02-23T12:27:21;99365.53;;;18.14
70969;BMP280;58630;43.022;25.100;2023-02-23T12:32:29;99383.94;;;18.73
70969;BMP280;58630;43.022;25.100;2023-02-23T12:35:01;99374.63;;;19.21
70969;BMP280;58630;43.022;25.100;2023-02-23T12:37:36;99367.78;;;19.58
70969;BMP280;58630;43.022;25.100;2023-02-23T12:43:06;99376.22;;;20.32
70969;BMP280;58630;43.022;25.100;2023-02-23T12:45:48;99379.53;;;20.62
70969;BMP280;58630;43.022;25.100;2023-02-23T12:48:23;99376.50;;;20.83
70969;BMP280;58630;43.022;25.100;2023-02-23T12:50:53;99382.03;;;21.14
70969;BMP280;58630;43.022;25.100;2023-02-23T12:53:28;99381.50;;;21.44
70969;BMP280;58630;43.022;25.100;2023-02-23T13:01:07;99381.97;;;21.74
70969;BMP280;58630;43.022;25.100;2023-02-23T13:06:17;99389.81;;;21.58
70969;BMP280;58630;43.022;25.100;2023-02-23T13:11:42;99385.66;;;21.96
70969;BMP280;58630;43.022;25.100;2023-02-23T13:14:25;99390.97;;;22.24
70969;BMP280;58630;43.022;25.100;2023-02-23T13:17:09;99399.81;;;22.43
70969;BMP280;58630;43.022;25.100;2023-02-23T13:24:40;99400.44;;;22.52
70969;BMP280;58630;43.022;25.100;2023-02-23T13:29:51;99385.16;;;22.91
70969;BMP280;58630;43.022;25.100;2023-02-23T13:32:22;99393.53;;;22.93
70969;BMP280;58630;43.022;25.100;2023-02-23T13:34:52;99390.19;;;23.12
70969;BMP280;58630;43.022;25.100;2023-02-23T13:37:22;99390.69;;;23.32
70969;BMP280;58630;43.022;25.100;2023-02-23T13:42:38;99392.63;;;23.35
70969;BMP280;58630;43.022;25.100;2023-02-23T13:50:04;99389.97;;;22.86
70969;BMP280;58630;43.022;25.100;2023-02-23T13:52:37;99396.44;;;22.73
70969;BMP280;58630;43.022;25.100;2023-02-23T13:57:49;99403.66;;;22.45
70969;BMP280;58630;43.022;25.100;2023-02-23T14:00:18;99404.81;;;22.32
70969;BMP280;58630;43.022;25.100;2023-02-23T14:02:44;99400.44;;;22.25
70969;BMP280;58630;43.022;25.100;2023-02-23T14:07:38;99401.88;;;21.95
70969;BMP280;58630;43.022;25.100;2023-02-23T14:10:05;99405.03;;;21.49
70969;BMP280;58630;43.022;25.100;2023-02-23T14:12:39;99405.47;;;21.51
70969;BMP280;58630;43.022;25.100;2023-02-23T14:20:23;99394.81;;;21.48
70969;BMP280;58630;43.022;25.100;2023-02-23T14:28:00;99398.75;;;21.54
70969;BMP280;58630;43.022;25.100;2023-02-23T14:30:26;99399.66;;;21.58
70969;BMP280;58630;43.022;25.100;2023-02-23T14:32:52;99403.16;;;21.50
70969;BMP280;58630;43.022;25.100;2023-02-23T14:37:59;99404.25;;;21.49
70969;BMP280;58630;43.022;25.100;2023-02-23T14:40:36;99396.66;;;21.47
70969;BMP280;58630;43.022;25.100;2023-02-23T14:43:02;99391.72;;;21.46
70969;BMP280;58630;43.022;25.100;2023-02-23T14:45:29;99405.59;;;21.43
70969;BMP280;58630;43.022;25.100;2023-02-23T14:47:56;99398.75;;;21.42
70969;BMP280;58630;43.022;25.100;2023-02-23T14:50:30;99397.78;;;21.34
70969;BMP280;58630;43.022;25.100;2023-02-23T14:52:56;99399.53;;;21.30
70969;BMP280;58630;43.022;25.100;2023-02-23T14:55:29;99397.88;;;21.26
70969;BMP280;58630;43.022;25.100;2023-02-23T14:57:55;99400.41;;;21.23
70969;BMP280;58630;43.022;25.100;2023-02-23T15:05:26;99409.31;;;21.06
70969;BMP280;58630;43.022;25.100;2023-02-23T15:07:52;99404.59;;;21.00
70969;BMP280;58630;43.022;25.100;2023-02-23T15:10:27;99410.44;;;20.93
70969;BMP280;58630;43.022;25.100;2023-02-23T15:12:53;99406.44;;;20.87
70969;BMP280;58630;43.022;25.100;2023-02-23T15:15:19;99402.47;;;20.81
70969;BMP280;58630;43.022;25.100;2023-02-23T15:17:46;99400.03;;;20.76
70969;BMP280;58630;43.022;25.100;2023-02-23T15:20:13;99407.38;;;20.71
70969;BMP280;58630;43.022;25.100;2023-02-23T15:22:40;99399.69;;;20.66
70969;BMP280;58630;43.022;25.100;2023-02-23T15:25:16;99407.03;;;20.61
70969;BMP280;58630;43.022;25.100;2023-02-23T15:27:42;99406.00;;;20.53
70969;BMP280;58630;43.022;25.100;2023-02-23T15:33:03;99412.03;;;20.42
70969;BMP280;58630;43.022;25.100;2023-02-23T15:35:28;99414.84;;;20.37
70969;BMP280;58630;43.022;25.100;2023-02-23T15:37:55;99419.53;;;20.31
70969;BMP280;58630;43.022;25.100;2023-02-23T15:40:22;99414.81;;;20.25
70969;BMP280;58630;43.022;25.100;2023-02-23T15:42:49;99423.66;;;20.20
70969;BMP280;58630;43.022;25.100;2023-02-23T15:45:22;99421.25;;;20.16
70969;BMP280;58630;43.022;25.100;2023-02-23T15:47:52;99416.91;;;20.11
70969;BMP280;58630;43.022;25.100;2023-02-23T15:50:20;99423.91;;;20.07
70969;BMP280;58630;43.022;25.100;2023-02-23T15:52:49;99427.53;;;20.03
70969;BMP280;58630;43.022;25.100;2023-02-23T15:55:21;99429.25;;;19.99
70969;BMP280;58630;43.022;25.100;2023-02-23T16:00:19;99428.66;;;19.93
70969;BMP280;58630;43.022;25.100;2023-02-23T16:02:51;99436.16;;;19.91
70969;BMP280;58630;43.022;25.100;2023-02-23T16:05:20;99432.25;;;19.89
70969;BMP280;58630;43.022;25.100;2023-02-23T16:07:45;99438.97;;;19.86
70969;BMP280;58630;43.022;25.100;2023-02-23T16:10:21;99443.03;;;19.84
70969;BMP280;58630;43.022;25.100;2023-02-23T16:12:48;99436.50;;;19.81
70969;BMP280;58630;43.022;25.100;2023-02-23T16:17:46;99443.38;;;19.74
70969;BMP280;58630;43.022;25.100;2023-02-23T16:22:38;99445.09;;;19.70
70969;BMP280;58630;43.022;25.100;2023-02-23T16:25:06;99452.88;;;19.66
70969;BMP280;58630;43.022;25.100;2023-02-23T16:27:32;99450.88;;;19.64
70969;BMP280;58630;43.022;25.100;2023-02-23T16:29:59;99462.81;;;19.61
70969;BMP280;58630;43.022;25.100;2023-02-23T16:32:32;99462.69;;;19.58
70969;BMP280;58630;43.022;25.100;2023-02-23T16:34:59;99459.94;;;19.54
70969;BMP280;58630;43.022;25.100;2023-02-23T16:37:25;99458.66;;;19.52
70969;BMP280;58630;43.022;25.100;2023-02-23T16:39:52;99463.00;;;19.48